Time;durP1;ratioP1;P1;durP2;ratioP2;P2;SDS_P1;SDS_P2;PMS_P1;PMS_P2;Temp;Humidity;BMP_temperature;BMP_pressure;BME280_temperature;BME280_humidity;BME280_pressure;Samples;Min_cycle;Max_cycle;Signal;HPM_P1;HPM_P2
2023/06/05 00:00:43;;;;;;;0.60;0.60;;;;;;;;;;5056836;28;20222;-88
2023/06/05 00:03:09;;;;;;;0.30;0.30;;;;;;;;;;5057137;28;20172;-88
2023/06/05 00:05:36;;;;;;;0.40;0.40;;;;;;;;;;5054614;28;20203;-88
2023/06/05 00:08:02;;;;;;;0.43;0.43;;;;;;;;;;5055267;28;20206;-88
2023/06/05 00:10:28;;;;;;;0.30;0.30;;;;;;;;;;5056974;28;20195;-89
2023/06/05 00:12:54;;;;;;;0.40;0.40;;;;;;;;;;5057211;28;20171;-87
2023/06/05 00:15:20;;;;;;;0.30;0.30;;;;;;;;;;5048954;28;20176;-88
2023/06/05 00:17:47;;;;;;;0.57;0.57;;;;;;;;;;5045144;28;20741;-88
2023/06/05 00:20:13;;;;;;;0.60;0.60;;;;;;;;;;5044724;28;20214;-89
2023/06/05 00:22:39;;;;;;;0.57;0.57;;;;;;;;;;5055293;28;20176;-92
2023/06/05 00:25:06;;;;;;;0.70;0.70;;;;;;;;;;5039479;28;20183;-89
2023/06/05 00:27:32;;;;;;;0.50;0.50;;;;;;;;;;5043624;28;20218;-88
2023/06/05 00:29:58;;;;;;;0.50;0.50;;;;;;;;;;5034092;28;20176;-88
2023/06/05 00:32:24;;;;;;;0.50;0.50;;;;;;;;;;5033572;28;20180;-88
2023/06/05 00:34:50;;;;;;;0.47;0.47;;;;;;;;;;5033095;28;20252;-88
2023/06/05 00:37:16;;;;;;;0.50;0.50;;;;;;;;;;5032715;28;20215;-87
2023/06/05 00:39:42;;;;;;;0.60;0.60;;;;;;;;;;5034597;28;20200;-88
2023/06/05 00:42:08;;;;;;;0.50;0.50;;;;;;;;;;5032955;28;20202;-86
2023/06/05 00:44:35;;;;;;;0.63;0.63;;;;;;;;;;5033038;28;20187;-87
2023/06/05 00:47:01;;;;;;;0.50;0.50;;;;;;;;;;5033702;28;20199;-87
2023/06/05 00:49:27;;;;;;;0.47;0.47;;;;;;;;;;5034158;28;20190;-87
2023/06/05 00:51:54;;;;;;;0.40;0.40;;;;;;;;;;5033854;28;20175;-87
2023/06/05 00:54:22;;;;;;;0.50;0.50;;;;;;;;;;5036584;28;20195;-87
2023/06/05 00:56:52;;;;;;;0.50;0.50;;;;;;;;;;5043258;28;20272;-86
2023/06/05 00:59:19;;;;;;;0.50;0.50;;;;;;;;;;5047667;28;20196;-88
2023/06/05 01:01:47;;;;;;;0.60;0.60;;;;;;;;;;5047388;28;20211;-87
2023/06/05 01:04:13;;;;;;;0.60;0.60;;;;;;;;;;5047451;28;20160;-89
2023/06/05 01:06:46;;;;;;;0.50;0.50;;;;;;;;;;5047597;28;20240;-89
2023/06/05 01:09:15;;;;;;;0.40;0.40;;;;;;;;;;5029181;28;20202;-89
2023/06/05 01:12:05;;;;;;;0.40;0.40;;;;;;;;;;5043164;28;20180;-88
2023/06/05 01:14:32;;;;;;;0.60;0.60;;;;;;;;;;5032566;28;20184;-89
2023/06/05 01:17:00;;;;;;;0.60;0.60;;;;;;;;;;5032404;28;20274;-89
2023/06/05 01:19:28;;;;;;;0.60;0.60;;;;;;;;;;5033443;28;20186;-89
2023/06/05 01:21:58;;;;;;;0.40;0.40;;;;;;;;;;5033530;28;20184;-88
2023/06/05 01:24:27;;;;;;;0.50;0.50;;;;;;;;;;5033752;28;20176;-89
2023/06/05 01:27:03;;;;;;;0.40;0.40;;;;;;;;;;5033234;28;20204;-88
2023/06/05 01:29:33;;;;;;;0.50;0.50;;;;;;;;;;5033181;28;20203;-89
2023/06/05 01:32:02;;;;;;;0.60;0.60;;;;;;;;;;5033114;28;20203;-89
2023/06/05 01:34:29;;;;;;;0.60;0.60;;;;;;;;;;5018836;28;20180;-89
2023/06/05 01:36:55;;;;;;;0.50;0.50;;;;;;;;;;5038146;28;20208;-89
2023/06/05 01:39:22;;;;;;;0.70;0.70;;;;;;;;;;5037627;28;20255;-88
2023/06/05 01:41:49;;;;;;;0.50;0.50;;;;;;;;;;5038119;28;20212;-88
2023/06/05 01:44:15;;;;;;;0.50;0.50;;;;;;;;;;5037500;28;20255;-88
2023/06/05 01:46:42;;;;;;;0.50;0.50;;;;;;;;;;5037086;28;20265;-88
2023/06/05 01:49:08;;;;;;;0.60;0.60;;;;;;;;;;5046963;28;20191;-89
2023/06/05 01:51:35;;;;;;;0.60;0.60;;;;;;;;;;5055093;28;20192;-88
2023/06/05 01:54:01;;;;;;;0.50;0.50;;;;;;;;;;5036438;28;20264;-88
2023/06/05 01:56:30;;;;;;;0.50;0.50;;;;;;;;;;5036155;28;20227;-88
2023/06/05 01:58:56;;;;;;;0.50;0.50;;;;;;;;;;5018702;28;20183;-88
2023/06/05 02:01:22;;;;;;;0.60;0.60;;;;;;;;;;5035961;28;20246;-89
2023/06/05 02:03:49;;;;;;;0.60;0.60;;;;;;;;;;5036369;28;20175;-88
2023/06/05 02:06:16;;;;;;;0.50;0.50;;;;;;;;;;5035581;28;20282;-88
2023/06/05 02:08:42;;;;;;;0.43;0.43;;;;;;;;;;5036555;28;20179;-87
2023/06/05 02:11:10;;;;;;;0.43;0.43;;;;;;;;;;5036581;28;20187;-87
2023/06/05 02:13:37;;;;;;;0.70;0.70;;;;;;;;;;5021714;28;20270;-89
2023/06/05 02:16:03;;;;;;;0.47;0.47;;;;;;;;;;5057551;28;20292;-91
2023/06/05 02:18:30;;;;;;;0.50;0.50;;;;;;;;;;5059334;28;20172;-92
2023/06/05 02:20:56;;;;;;;0.60;0.60;;;;;;;;;;5059382;28;20211;-91
2023/06/05 02:23:23;;;;;;;0.50;0.50;;;;;;;;;;5057708;28;20172;-87
2023/06/05 02:25:49;;;;;;;0.50;0.50;;;;;;;;;;5052780;28;20190;-90
2023/06/05 02:28:15;;;;;;;0.60;0.60;;;;;;;;;;5051361;28;20195;-86
2023/06/05 02:30:44;;;;;;;0.50;0.50;;;;;;;;;;5035624;28;20176;-86
2023/06/05 02:33:10;;;;;;;0.50;0.50;;;;;;;;;;5035359;28;20692;-86
2023/06/05 02:35:36;;;;;;;0.60;0.60;;;;;;;;;;5035959;28;20248;-87
2023/06/05 02:38:05;;;;;;;0.50;0.50;;;;;;;;;;5034794;28;20172;-87
2023/06/05 02:40:31;;;;;;;0.50;0.50;;;;;;;;;;5035094;28;20219;-87
2023/06/05 02:42:57;;;;;;;0.60;0.60;;;;;;;;;;5034379;28;20180;-86
2023/06/05 02:45:23;;;;;;;0.50;0.50;;;;;;;;;;5035216;28;20270;-87
2023/06/05 02:47:49;;;;;;;0.50;0.50;;;;;;;;;;5035234;28;20620;-88
2023/06/05 02:50:15;;;;;;;0.47;0.47;;;;;;;;;;5036402;28;20531;-88
2023/06/05 02:52:41;;;;;;;0.50;0.50;;;;;;;;;;5035645;28;20168;-87
2023/06/05 02:55:07;;;;;;;0.50;0.50;;;;;;;;;;5035028;28;20175;-87
2023/06/05 02:57:40;;;;;;;0.50;0.50;;;;;;;;;;5035560;28;20291;-87
2023/06/05 03:00:07;;;;;;;0.50;0.50;;;;;;;;;;5035951;28;20314;-87
2023/06/05 03:02:36;;;;;;;0.57;0.57;;;;;;;;;;5035256;28;20176;-87
2023/06/05 03:05:02;;;;;;;0.60;0.60;;;;;;;;;;5035461;28;20558;-86
2023/06/05 03:07:28;;;;;;;0.50;0.50;;;;;;;;;;5034920;28;20283;-86
2023/06/05 03:09:54;;;;;;;0.50;0.50;;;;;;;;;;5034709;28;20195;-86
2023/06/05 03:12:20;;;;;;;0.50;0.50;;;;;;;;;;5035358;28;20187;-87
2023/06/05 03:14:46;;;;;;;0.53;0.53;;;;;;;;;;5034894;28;20172;-87
2023/06/05 03:17:12;;;;;;;0.50;0.50;;;;;;;;;;5034195;28;20203;-87
2023/06/05 03:19:38;;;;;;;0.60;0.60;;;;;;;;;;5034628;28;20259;-86
2023/06/05 03:22:05;;;;;;;0.57;0.57;;;;;;;;;;5035055;28;20565;-86
2023/06/05 03:24:31;;;;;;;0.50;0.50;;;;;;;;;;5039070;28;20250;-88
2023/06/05 03:26:57;;;;;;;0.60;0.60;;;;;;;;;;5031636;28;20240;-88
2023/06/05 03:29:23;;;;;;;0.63;0.63;;;;;;;;;;5048851;28;20206;-88
2023/06/05 03:31:49;;;;;;;0.60;0.60;;;;;;;;;;5046622;28;20183;-87
2023/06/05 03:34:15;;;;;;;0.50;0.50;;;;;;;;;;5035744;28;20251;-87
2023/06/05 03:36:41;;;;;;;0.47;0.47;;;;;;;;;;5035543;28;20207;-88
2023/06/05 03:39:07;;;;;;;0.60;0.60;;;;;;;;;;5035835;28;20634;-88
2023/06/05 03:41:33;;;;;;;0.50;0.50;;;;;;;;;;5034731;28;20215;-87
2023/06/05 03:43:59;;;;;;;0.50;0.50;;;;;;;;;;5037139;28;20182;-88
2023/06/05 03:46:25;;;;;;;0.60;0.60;;;;;;;;;;5035796;28;20273;-89
2023/06/05 03:48:55;;;;;;;0.50;0.50;;;;;;;;;;5044283;28;20330;-90
2023/06/05 03:51:21;;;;;;;0.60;0.60;;;;;;;;;;5057482;28;20240;-89
2023/06/05 03:53:54;;;;;;;0.70;0.70;;;;;;;;;;5057447;28;20172;-87
2023/06/05 03:56:21;;;;;;;0.53;0.53;;;;;;;;;;5045735;28;20257;-86
2023/06/05 03:58:48;;;;;;;0.40;0.40;;;;;;;;;;5037854;28;20270;-86
2023/06/05 04:01:14;;;;;;;0.50;0.50;;;;;;;;;;5037443;28;20265;-85
2023/06/05 04:03:40;;;;;;;0.60;0.60;;;;;;;;;;5036357;28;20180;-85
2023/06/05 04:06:08;;;;;;;0.50;0.50;;;;;;;;;;5035616;28;20222;-86
2023/06/05 04:08:34;;;;;;;0.60;0.60;;;;;;;;;;5036006;28;20176;-88
2023/06/05 04:11:00;;;;;;;0.53;0.53;;;;;;;;;;5040122;28;20180;-87
2023/06/05 04:13:26;;;;;;;0.60;0.60;;;;;;;;;;5042412;28;20234;-87
2023/06/05 04:15:52;;;;;;;0.60;0.60;;;;;;;;;;5039990;28;20196;-86
2023/06/05 04:18:18;;;;;;;0.50;0.50;;;;;;;;;;5041283;28;20199;-85
2023/06/05 04:20:44;;;;;;;0.50;0.50;;;;;;;;;;5042120;28;20205;-86
2023/06/05 04:23:10;;;;;;;0.60;0.60;;;;;;;;;;5044986;28;20633;-87
2023/06/05 04:25:36;;;;;;;0.60;0.60;;;;;;;;;;5046306;28;20206;-90
2023/06/05 04:28:03;;;;;;;0.60;0.60;;;;;;;;;;5053794;28;20210;-88
2023/06/05 04:30:29;;;;;;;0.70;0.70;;;;;;;;;;5057339;28;20194;-86
2023/06/05 04:32:55;;;;;;;0.50;0.50;;;;;;;;;;5064571;28;20172;-87
2023/06/05 04:35:22;;;;;;;0.60;0.60;;;;;;;;;;5074768;28;20239;-93
2023/06/05 04:37:48;;;;;;;0.60;0.60;;;;;;;;;;5076689;28;20183;-90
2023/06/05 04:40:15;;;;;;;0.70;0.70;;;;;;;;;;5076971;28;20198;-92
2023/06/05 04:42:41;;;;;;;0.63;0.63;;;;;;;;;;5055455;28;20209;-87
2023/06/05 04:45:08;;;;;;;0.70;0.70;;;;;;;;;;5054217;28;20197;-87
2023/06/05 04:47:34;;;;;;;0.60;0.60;;;;;;;;;;5053375;28;20332;-87
2023/06/05 04:50:03;;;;;;;0.60;0.60;;;;;;;;;;5053759;28;20182;-88
2023/06/05 04:52:29;;;;;;;0.60;0.60;;;;;;;;;;5057386;28;20253;-88
2023/06/05 04:54:55;;;;;;;0.70;0.70;;;;;;;;;;5070011;28;20183;-88
2023/06/05 04:57:24;;;;;;;0.60;0.60;;;;;;;;;;5074854;28;20211;-90
2023/06/05 04:59:50;;;;;;;0.60;0.60;;;;;;;;;;5075615;28;20179;-90
2023/06/05 05:02:16;;;;;;;0.60;0.60;;;;;;;;;;5074422;28;20231;-92
2023/06/05 05:04:42;;;;;;;0.50;0.50;;;;;;;;;;5071017;28;20167;-89
2023/06/05 05:07:14;;;;;;;0.50;0.50;;;;;;;;;;5051235;28;20591;-89
2023/06/05 05:09:40;;;;;;;0.60;0.60;;;;;;;;;;5059298;28;20633;-89
2023/06/05 05:12:07;;;;;;;0.50;0.50;;;;;;;;;;5056857;28;20204;-89
2023/06/05 05:14:33;;;;;;;0.60;0.60;;;;;;;;;;5058272;28;20179;-89
2023/06/05 05:17:01;;;;;;;0.47;0.47;;;;;;;;;;5056824;28;20215;-88
2023/06/05 05:19:27;;;;;;;0.53;0.53;;;;;;;;;;5057474;28;20512;-89
2023/06/05 05:21:53;;;;;;;0.40;0.40;;;;;;;;;;5057314;28;20230;-89
2023/06/05 05:24:19;;;;;;;0.47;0.47;;;;;;;;;;5057494;28;20167;-89
2023/06/05 05:26:46;;;;;;;0.40;0.40;;;;;;;;;;5057498;28;20199;-88
2023/06/05 05:29:12;;;;;;;0.50;0.50;;;;;;;;;;5044285;28;20228;-87
2023/06/05 05:31:38;;;;;;;0.40;0.40;;;;;;;;;;5061184;28;20180;-88
2023/06/05 05:34:04;;;;;;;0.50;0.50;;;;;;;;;;5061130;28;20186;-88
2023/06/05 05:36:30;;;;;;;0.43;0.43;;;;;;;;;;5060070;28;20199;-87
2023/06/05 05:38:56;;;;;;;0.30;0.30;;;;;;;;;;5062106;28;20195;-85
2023/06/05 05:41:22;;;;;;;0.40;0.40;;;;;;;;;;5063467;28;20252;-87
2023/06/05 05:43:48;;;;;;;0.40;0.40;;;;;;;;;;5061481;28;20197;-87
2023/06/05 05:46:14;;;;;;;0.50;0.50;;;;;;;;;;5059515;28;20689;-86
2023/06/05 05:48:40;;;;;;;0.50;0.50;;;;;;;;;;5059007;28;20178;-86
2023/06/05 05:51:07;;;;;;;0.50;0.50;;;;;;;;;;5057284;28;20175;-86
2023/06/05 05:53:33;;;;;;;0.30;0.30;;;;;;;;;;5057925;28;20201;-87
2023/06/05 05:56:00;;;;;;;0.40;0.40;;;;;;;;;;5057817;28;20210;-87
2023/06/05 05:58:26;;;;;;;0.40;0.40;;;;;;;;;;5058474;28;20574;-85
2023/06/05 06:00:52;;;;;;;0.53;0.53;;;;;;;;;;5050899;28;20239;-88
2023/06/05 06:03:19;;;;;;;0.40;0.40;;;;;;;;;;5037898;28;20179;-88
2023/06/05 06:05:45;;;;;;;0.30;0.30;;;;;;;;;;5037529;28;20171;-87
2023/06/05 06:08:11;;;;;;;0.30;0.30;;;;;;;;;;5037129;28;20183;-87
2023/06/05 06:10:37;;;;;;;0.40;0.40;;;;;;;;;;5149570;22;20731;-81
2023/06/05 06:13:04;;;;;;;0.30;0.30;;;;;;;;;;5057140;28;20175;-81
2023/06/05 06:15:31;;;;;;;0.30;0.30;;;;;;;;;;5057153;28;20179;-81
2023/06/05 06:17:57;;;;;;;0.40;0.40;;;;;;;;;;5036188;28;20168;-82
2023/06/05 06:20:23;;;;;;;0.40;0.40;;;;;;;;;;5035995;28;20689;-82
2023/06/05 06:22:49;;;;;;;0.40;0.40;;;;;;;;;;5037236;28;20179;-82
2023/06/05 06:25:16;;;;;;;0.30;0.30;;;;;;;;;;5037903;28;20585;-81
2023/06/05 06:27:43;;;;;;;0.30;0.30;;;;;;;;;;5036241;28;20286;-81
2023/06/05 06:30:10;;;;;;;0.30;0.30;;;;;;;;;;5036165;28;20195;-81
2023/06/05 06:32:36;;;;;;;0.20;0.20;;;;;;;;;;5035856;28;20172;-80
2023/06/05 06:35:02;;;;;;;0.30;0.30;;;;;;;;;;5036355;28;20184;-80
2023/06/05 06:37:28;;;;;;;0.40;0.40;;;;;;;;;;5035463;28;20215;-82
2023/06/05 06:39:54;;;;;;;0.30;0.30;;;;;;;;;;5035692;28;20172;-81
2023/06/05 06:42:20;;;;;;;0.43;0.43;;;;;;;;;;5036143;28;20176;-80
2023/06/05 06:44:46;;;;;;;0.30;0.30;;;;;;;;;;5035341;28;20176;-79
2023/06/05 06:47:12;;;;;;;0.30;0.30;;;;;;;;;;5039740;28;20234;-79
2023/06/05 06:49:39;;;;;;;0.30;0.30;;;;;;;;;;5038264;28;20262;-79
2023/06/05 06:52:05;;;;;;;0.40;0.40;;;;;;;;;;5040873;28;20187;-80
2023/06/05 06:54:32;;;;;;;0.40;0.40;;;;;;;;;;5046057;28;20175;-79
2023/06/05 06:56:58;;;;;;;0.40;0.40;;;;;;;;;;5037150;28;20188;-82
2023/06/05 06:59:24;;;;;;;0.30;0.30;;;;;;;;;;5038429;28;20207;-81
2023/06/05 07:02:10;;;;;;;0.33;0.33;;;;;;;;;;5037646;28;20675;-81
2023/06/05 07:04:36;;;;;;;0.37;0.37;;;;;;;;;;5038201;28;20259;-81
2023/06/05 07:07:02;;;;;;;0.40;0.40;;;;;;;;;;5037304;28;20204;-81
2023/06/05 07:09:28;;;;;;;0.40;0.40;;;;;;;;;;5036458;28;20218;-81
2023/06/05 07:11:55;;;;;;;0.30;0.30;;;;;;;;;;5036899;28;20187;-81
2023/06/05 07:14:21;;;;;;;0.40;0.40;;;;;;;;;;5036362;28;20168;-79
2023/06/05 07:16:48;;;;;;;0.30;0.30;;;;;;;;;;5035810;28;20285;-81
2023/06/05 07:19:15;;;;;;;0.37;0.37;;;;;;;;;;5036560;28;20816;-80
2023/06/05 07:21:41;;;;;;;0.30;0.30;;;;;;;;;;5035848;28;20219;-81
2023/06/05 07:24:08;;;;;;;0.20;0.20;;;;;;;;;;5035301;28;20543;-79
2023/06/05 07:26:34;;;;;;;0.30;0.30;;;;;;;;;;5035599;28;20253;-79
2023/06/05 07:29:00;;;;;;;0.30;0.30;;;;;;;;;;5036856;28;20176;-80
2023/06/05 07:31:26;;;;;;;0.40;0.40;;;;;;;;;;5037570;28;20207;-80
2023/06/05 07:33:52;;;;;;;0.30;0.30;;;;;;;;;;5038158;28;20572;-82
2023/06/05 07:36:18;;;;;;;0.20;0.20;;;;;;;;;;5035331;28;20199;-81
2023/06/05 07:38:44;;;;;;;0.30;0.30;;;;;;;;;;5035823;28;20186;-81
2023/06/05 07:41:11;;;;;;;0.30;0.30;;;;;;;;;;5036121;28;20212;-81
2023/06/05 07:43:41;;;;;;;0.30;0.30;;;;;;;;;;5036487;28;20230;-81
2023/06/05 07:46:08;;;;;;;0.30;0.30;;;;;;;;;;5035064;28;20307;-79
2023/06/05 07:48:34;;;;;;;0.30;0.30;;;;;;;;;;5035550;28;20521;-80
2023/06/05 07:51:00;;;;;;;0.30;0.30;;;;;;;;;;5035636;28;20533;-80
2023/06/05 07:53:26;;;;;;;0.30;0.30;;;;;;;;;;5035672;28;20178;-80
2023/06/05 07:55:52;;;;;;;0.30;0.30;;;;;;;;;;5034911;28;20261;-80
2023/06/05 07:58:19;;;;;;;0.30;0.30;;;;;;;;;;5034892;28;20183;-79
2023/06/05 08:00:47;;;;;;;0.30;0.30;;;;;;;;;;5034969;28;20820;-80
2023/06/05 08:03:19;;;;;;;0.30;0.30;;;;;;;;;;5035740;28;20662;-81
2023/06/05 08:05:45;;;;;;;0.20;0.20;;;;;;;;;;5034658;28;20317;-81
2023/06/05 08:08:11;;;;;;;0.30;0.30;;;;;;;;;;5035328;28;20183;-80
2023/06/05 08:10:37;;;;;;;0.30;0.30;;;;;;;;;;5034957;28;20195;-81
2023/06/05 08:13:03;;;;;;;0.30;0.30;;;;;;;;;;5034751;28;20271;-82
2023/06/05 08:15:29;;;;;;;0.30;0.30;;;;;;;;;;5045388;28;20186;-82
2023/06/05 08:17:55;;;;;;;0.30;0.30;;;;;;;;;;5053378;28;20222;-80
2023/06/05 08:20:21;;;;;;;0.30;0.30;;;;;;;;;;5053974;28;20262;-79
2023/06/05 08:22:47;;;;;;;0.33;0.33;;;;;;;;;;5054123;28;20225;-80
2023/06/05 08:25:13;;;;;;;0.30;0.30;;;;;;;;;;5054127;28;20213;-81
2023/06/05 08:27:39;;;;;;;0.30;0.30;;;;;;;;;;5053146;28;20716;-80
2023/06/05 08:30:05;;;;;;;0.30;0.30;;;;;;;;;;5053767;28;20183;-80
2023/06/05 08:32:32;;;;;;;0.20;0.20;;;;;;;;;;5053921;28;20186;-80
2023/06/05 08:34:58;;;;;;;0.30;0.30;;;;;;;;;;5054400;28;20182;-79
2023/06/05 08:37:24;;;;;;;0.30;0.30;;;;;;;;;;5051477;28;20199;-83
2023/06/05 08:39:50;;;;;;;0.30;0.30;;;;;;;;;;5034833;28;20199;-80
2023/06/05 08:42:18;;;;;;;0.30;0.30;;;;;;;;;;5042556;28;20184;-79
2023/06/05 08:44:47;;;;;;;0.40;0.40;;;;;;;;;;5048503;28;20653;-81
2023/06/05 08:47:14;;;;;;;0.20;0.20;;;;;;;;;;5046890;28;20279;-80
2023/06/05 08:49:41;;;;;;;0.40;0.40;;;;;;;;;;5044069;28;20163;-80
2023/06/05 08:52:08;;;;;;;0.30;0.30;;;;;;;;;;5049093;28;20187;-79
2023/06/05 08:54:37;;;;;;;0.37;0.37;;;;;;;;;;5044249;28;20187;-79
2023/06/05 08:57:04;;;;;;;0.30;0.30;;;;;;;;;;5038413;28;20275;-80
2023/06/05 08:59:30;;;;;;;0.30;0.30;;;;;;;;;;5049764;28;20660;-80
2023/06/05 09:01:57;;;;;;;0.40;0.40;;;;;;;;;;5038854;28;20218;-80
2023/06/05 09:04:24;;;;;;;0.30;0.30;;;;;;;;;;5044215;28;20213;-82
2023/06/05 09:06:53;;;;;;;0.30;0.30;;;;;;;;;;5040322;28;20202;-79
2023/06/05 09:09:20;;;;;;;0.30;0.30;;;;;;;;;;5042216;28;20179;-80
2023/06/05 09:11:46;;;;;;;0.43;0.43;;;;;;;;;;5046280;28;20190;-81
2023/06/05 09:14:12;;;;;;;0.30;0.30;;;;;;;;;;5027524;28;20531;-81
2023/06/05 09:16:43;;;;;;;0.40;0.40;;;;;;;;;;5044588;28;20214;-81
2023/06/05 09:19:09;;;;;;;0.50;0.50;;;;;;;;;;5037454;28;20184;-80
2023/06/05 09:21:35;;;;;;;0.30;0.30;;;;;;;;;;5049589;28;20210;-81
2023/06/05 09:24:15;;;;;;;0.40;0.40;;;;;;;;;;5039704;28;20193;-81
2023/06/05 09:26:51;;;;;;;0.30;0.30;;;;;;;;;;5041800;28;20199;-81
2023/06/05 09:29:30;;;;;;;0.30;0.30;;;;;;;;;;5049525;28;20167;-80
2023/06/05 09:31:57;;;;;;;0.30;0.30;;;;;;;;;;5039035;28;20194;-79
2023/06/05 09:34:24;;;;;;;0.30;0.30;;;;;;;;;;5043715;28;20250;-80
2023/06/05 09:36:51;;;;;;;0.30;0.30;;;;;;;;;;5044652;28;20198;-79
2023/06/05 09:39:19;;;;;;;0.30;0.30;;;;;;;;;;5035386;28;20246;-80
2023/06/05 09:41:46;;;;;;;0.40;0.40;;;;;;;;;;5047832;28;20203;-80
2023/06/05 09:44:12;;;;;;;0.30;0.30;;;;;;;;;;5039577;28;20646;-79
2023/06/05 09:46:54;;;;;;;0.30;0.30;;;;;;;;;;5043439;28;20669;-79
2023/06/05 09:49:20;;;;;;;0.30;0.30;;;;;;;;;;5051258;28;20205;-78
2023/06/05 09:51:47;;;;;;;0.30;0.30;;;;;;;;;;5035908;28;20171;-78
2023/06/05 09:54:13;;;;;;;0.30;0.30;;;;;;;;;;5050785;28;20641;-80
2023/06/05 09:56:43;;;;;;;0.40;0.40;;;;;;;;;;5043957;28;20231;-79
2023/06/05 09:59:09;;;;;;;0.40;0.40;;;;;;;;;;5047511;28;20590;-80
2023/06/05 10:01:41;;;;;;;0.40;0.40;;;;;;;;;;5052672;28;20211;-82
2023/06/05 10:04:09;;;;;;;0.30;0.30;;;;;;;;;;5034813;28;20187;-80
2023/06/05 10:06:36;;;;;;;0.40;0.40;;;;;;;;;;5043825;28;20204;-78
2023/06/05 10:09:02;;;;;;;0.33;0.33;;;;;;;;;;5045937;28;20171;-78
2023/06/05 10:11:29;;;;;;;0.50;0.50;;;;;;;;;;5046692;28;20199;-80
2023/06/05 10:13:57;;;;;;;0.40;0.40;;;;;;;;;;5043673;28;20178;-79
2023/06/05 10:16:23;;;;;;;0.40;0.40;;;;;;;;;;5043137;28;20329;-81
2023/06/05 10:18:49;;;;;;;0.30;0.30;;;;;;;;;;5037214;28;20301;-80
2023/06/05 10:21:16;;;;;;;0.33;0.33;;;;;;;;;;5036931;28;20212;-80
2023/06/05 10:23:48;;;;;;;0.37;0.37;;;;;;;;;;5036632;28;20183;-80
2023/06/05 10:26:23;;;;;;;0.40;0.40;;;;;;;;;;5036434;28;20203;-80
2023/06/05 10:28:58;;;;;;;0.50;0.50;;;;;;;;;;5035891;28;20233;-80
2023/06/05 10:31:30;;;;;;;0.40;0.40;;;;;;;;;;5036161;28;20255;-81
2023/06/05 10:34:06;;;;;;;0.50;0.50;;;;;;;;;;5036065;28;20541;-80
2023/06/05 10:36:51;;;;;;;0.40;0.40;;;;;;;;;;5040428;28;20211;-80
2023/06/05 10:39:18;;;;;;;0.50;0.50;;;;;;;;;;5043033;28;20234;-79
2023/06/05 10:41:44;;;;;;;0.40;0.40;;;;;;;;;;5042166;28;20278;-79
2023/06/05 10:44:12;;;;;;;0.30;0.30;;;;;;;;;;5036126;28;20267;-81
2023/06/05 10:46:38;;;;;;;0.57;0.57;;;;;;;;;;5035392;28;20552;-80
2023/06/05 10:49:19;;;;;;;0.60;0.60;;;;;;;;;;5036071;28;20653;-79
2023/06/05 10:51:49;;;;;;;0.20;0.20;;;;;;;;;;5036006;28;20179;-80
2023/06/05 10:54:38;;;;;;;0.40;0.40;;;;;;;;;;5035556;28;20168;-80
2023/06/05 10:57:09;;;;;;;0.30;0.30;;;;;;;;;;5034685;28;20199;-79
2023/06/05 10:59:36;;;;;;;0.30;0.30;;;;;;;;;;5035204;28;20242;-80
2023/06/05 11:02:26;;;;;;;0.30;0.30;;;;;;;;;;5034940;28;20228;-80
2023/06/05 11:04:51;;;;;;;0.30;0.30;;;;;;;;;;5033955;28;20191;-79
2023/06/05 11:07:18;;;;;;;0.40;0.40;;;;;;;;;;5034228;28;20192;-79
2023/06/05 11:10:03;;;;;;;0.30;0.30;;;;;;;;;;5034728;28;20279;-81
2023/06/05 11:12:41;;;;;;;0.40;0.40;;;;;;;;;;5035586;28;20171;-80
2023/06/05 11:15:08;;;;;;;0.30;0.30;;;;;;;;;;5035216;28;20646;-80
2023/06/05 11:17:37;;;;;;;0.40;0.40;;;;;;;;;;5034809;28;20628;-80
2023/06/05 11:20:10;;;;;;;0.40;0.40;;;;;;;;;;5035116;28;20176;-79
2023/06/05 11:22:54;;;;;;;0.30;0.30;;;;;;;;;;5035340;28;20194;-79
2023/06/05 11:25:32;;;;;;;0.30;0.30;;;;;;;;;;5035095;28;20175;-80
2023/06/05 11:28:07;;;;;;;0.30;0.30;;;;;;;;;;5034337;28;20172;-79
2023/06/05 11:30:34;;;;;;;0.30;0.30;;;;;;;;;;5035313;28;20190;-80
2023/06/05 11:33:13;;;;;;;0.30;0.30;;;;;;;;;;5034840;28;20172;-79
2023/06/05 11:35:40;;;;;;;0.50;0.50;;;;;;;;;;5034056;28;20717;-80
2023/06/05 11:38:08;;;;;;;0.43;0.43;;;;;;;;;;5034772;28;20171;-80
2023/06/05 11:40:35;;;;;;;0.50;0.50;;;;;;;;;;5034152;28;20570;-80
2023/06/05 11:43:08;;;;;;;0.40;0.40;;;;;;;;;;5034547;28;20176;-80
2023/06/05 11:45:35;;;;;;;0.50;0.50;;;;;;;;;;5034394;28;20180;-79
2023/06/05 11:48:08;;;;;;;0.47;0.47;;;;;;;;;;5034004;28;20431;-80
2023/06/05 11:50:34;;;;;;;0.43;0.43;;;;;;;;;;5033005;28;20194;-79
2023/06/05 11:53:19;;;;;;;0.47;0.47;;;;;;;;;;5041474;28;20266;-81
2023/06/05 11:58:26;;;;;;;0.50;0.50;;;;;;;;;;5033170;28;20186;-80
2023/06/05 12:00:52;;;;;;;0.30;0.30;;;;;;;;;;5033815;28;20210;-81
2023/06/05 12:03:21;;;;;;;0.40;0.40;;;;;;;;;;5033880;28;20717;-82
2023/06/05 12:05:48;;;;;;;0.40;0.40;;;;;;;;;;5033464;28;20184;-81
2023/06/05 12:08:32;;;;;;;0.40;0.40;;;;;;;;;;5043473;28;20683;-80
2023/06/05 12:10:58;;;;;;;0.30;0.30;;;;;;;;;;5038102;28;20274;-81
2023/06/05 12:13:43;;;;;;;0.47;0.47;;;;;;;;;;5017834;28;20203;-83
2023/06/05 12:16:09;;;;;;;0.47;0.47;;;;;;;;;;5042865;28;20203;-80
2023/06/05 12:18:35;;;;;;;0.50;0.50;;;;;;;;;;5045434;28;20202;-81
2023/06/05 12:21:02;;;;;;;0.50;0.50;;;;;;;;;;5039761;28;20208;-81
2023/06/05 12:23:32;;;;;;;0.50;0.50;;;;;;;;;;5052692;28;20171;-83
2023/06/05 12:26:03;;;;;;;0.40;0.40;;;;;;;;;;5042004;28;20591;-82
2023/06/05 12:28:29;;;;;;;0.30;0.30;;;;;;;;;;5057474;28;20179;-84
2023/06/05 12:30:55;;;;;;;0.30;0.30;;;;;;;;;;5057931;28;20236;-83
2023/06/05 12:33:24;;;;;;;0.50;0.50;;;;;;;;;;5054020;28;20182;-82
2023/06/05 12:36:02;;;;;;;0.50;0.50;;;;;;;;;;5042938;28;20175;-82
2023/06/05 12:38:28;;;;;;;0.30;0.30;;;;;;;;;;5043133;28;20192;-82
2023/06/05 12:40:55;;;;;;;0.40;0.40;;;;;;;;;;5039696;28;20200;-84
2023/06/05 12:43:21;;;;;;;0.60;0.60;;;;;;;;;;5033335;28;20203;-84
2023/06/05 12:45:49;;;;;;;0.40;0.40;;;;;;;;;;5033615;28;20518;-83
2023/06/05 12:48:15;;;;;;;0.50;0.50;;;;;;;;;;5034062;28;20183;-83
2023/06/05 12:50:41;;;;;;;0.40;0.40;;;;;;;;;;5035098;28;20188;-81
2023/06/05 12:53:07;;;;;;;0.57;0.57;;;;;;;;;;5036045;28;20180;-82
2023/06/05 12:55:33;;;;;;;0.50;0.50;;;;;;;;;;5041328;28;20184;-82
2023/06/05 12:57:59;;;;;;;0.40;0.40;;;;;;;;;;5042893;28;20175;-80
2023/06/05 13:00:25;;;;;;;0.40;0.40;;;;;;;;;;5044388;28;20257;-81
2023/06/05 13:02:51;;;;;;;0.40;0.40;;;;;;;;;;5046486;28;20195;-83
2023/06/05 13:05:17;;;;;;;0.33;0.33;;;;;;;;;;5043098;28;20180;-82
2023/06/05 13:07:43;;;;;;;0.40;0.40;;;;;;;;;;5045763;28;20203;-82
2023/06/05 13:10:11;;;;;;;0.30;0.30;;;;;;;;;;5053399;28;20199;-81
2023/06/05 13:12:37;;;;;;;0.40;0.40;;;;;;;;;;5054792;28;20231;-81
2023/06/05 13:15:06;;;;;;;0.20;0.20;;;;;;;;;;5054880;28;20183;-82
2023/06/05 13:17:35;;;;;;;0.40;0.40;;;;;;;;;;5053797;28;20220;-82
2023/06/05 13:20:06;;;;;;;0.40;0.40;;;;;;;;;;5050805;28;20167;-82
2023/06/05 13:22:32;;;;;;;0.20;0.20;;;;;;;;;;5036673;28;20241;-80
2023/06/05 13:24:58;;;;;;;0.30;0.30;;;;;;;;;;5035416;28;20187;-79
2023/06/05 13:27:24;;;;;;;0.40;0.40;;;;;;;;;;5035303;28;20583;-80
2023/06/05 13:29:50;;;;;;;0.30;0.30;;;;;;;;;;5037947;28;20175;-79
2023/06/05 13:32:16;;;;;;;0.40;0.40;;;;;;;;;;5038715;28;20239;-79
2023/06/05 13:34:41;;;;;;;0.50;0.50;;;;;;;;;;5039143;28;20209;-78
2023/06/05 13:37:08;;;;;;;0.30;0.30;;;;;;;;;;5036987;28;20204;-80
2023/06/05 13:39:34;;;;;;;0.20;0.20;;;;;;;;;;5038221;28;20611;-79
2023/06/05 13:42:02;;;;;;;0.30;0.30;;;;;;;;;;5037993;28;20713;-80
2023/06/05 13:44:28;;;;;;;0.40;0.40;;;;;;;;;;5038353;28;20176;-81
2023/06/05 13:46:55;;;;;;;0.40;0.40;;;;;;;;;;5038187;28;20203;-80
2023/06/05 13:49:21;;;;;;;0.30;0.30;;;;;;;;;;5038449;28;20263;-80
2023/06/05 13:51:47;;;;;;;0.40;0.40;;;;;;;;;;5037527;28;20215;-80
2023/06/05 13:54:13;;;;;;;0.50;0.50;;;;;;;;;;5038004;28;20183;-81
2023/06/05 13:56:39;;;;;;;0.50;0.50;;;;;;;;;;5038072;28;20573;-80
2023/06/05 13:59:05;;;;;;;0.40;0.40;;;;;;;;;;5037597;28;20199;-81
2023/06/05 14:01:31;;;;;;;0.50;0.50;;;;;;;;;;5038614;28;20748;-80
2023/06/05 14:03:57;;;;;;;0.40;0.40;;;;;;;;;;5038654;28;20180;-80
2023/06/05 14:06:23;;;;;;;0.40;0.40;;;;;;;;;;5037614;28;20549;-82
2023/06/05 14:08:49;;;;;;;0.50;0.50;;;;;;;;;;5038416;28;20210;-81
2023/06/05 14:11:15;;;;;;;0.40;0.40;;;;;;;;;;5038819;28;20685;-81
2023/06/05 14:13:41;;;;;;;0.50;0.50;;;;;;;;;;5038252;28;20168;-82
2023/06/05 14:16:13;;;;;;;0.40;0.40;;;;;;;;;;5049380;28;20226;-81
2023/06/05 14:18:39;;;;;;;0.20;0.20;;;;;;;;;;5039060;28;20184;-82
2023/06/05 14:21:05;;;;;;;0.50;0.50;;;;;;;;;;5041593;28;20211;-81
2023/06/05 14:23:31;;;;;;;0.30;0.30;;;;;;;;;;5046100;28;20176;-82
2023/06/05 14:25:57;;;;;;;0.40;0.40;;;;;;;;;;5046070;28;20305;-81
2023/06/05 14:28:23;;;;;;;0.30;0.30;;;;;;;;;;5045982;28;20641;-82
2023/06/05 14:30:49;;;;;;;0.40;0.40;;;;;;;;;;5046723;28;20176;-81
2023/06/05 14:33:17;;;;;;;0.30;0.30;;;;;;;;;;5055988;28;20243;-81
2023/06/05 14:35:43;;;;;;;0.40;0.40;;;;;;;;;;5054955;28;20210;-81
2023/06/05 14:38:12;;;;;;;0.43;0.43;;;;;;;;;;5054554;28;20161;-79
2023/06/05 14:40:42;;;;;;;0.30;0.30;;;;;;;;;;5055326;28;20250;-82
2023/06/05 14:43:08;;;;;;;0.40;0.40;;;;;;;;;;5057516;28;20172;-78
2023/06/05 14:45:34;;;;;;;0.30;0.30;;;;;;;;;;5058705;28;20240;-84
2023/06/05 14:48:00;;;;;;;0.47;0.47;;;;;;;;;;5057281;28;20176;-82